createdAt,value
2018-08-13T00:02:13.646Z,98143.77
2018-08-13T00:04:45.506Z,98144.42
2018-08-13T00:07:13.772Z,98145.59
2018-08-13T00:09:42.382Z,98145.29
2018-08-13T00:12:12.610Z,98135.80
2018-08-13T00:14:44.927Z,98137.59
2018-08-13T00:17:13.356Z,98131.11
2018-08-13T00:19:41.562Z,98124.50
2018-08-13T00:22:09.638Z,98122.98
2018-08-13T00:24:37.781Z,98120.17
2018-08-13T00:27:06.496Z,98117.20
2018-08-13T00:29:34.690Z,98114.39
2018-08-13T00:32:02.775Z,98111.27
2018-08-13T00:34:31.602Z,98112.45
2018-08-13T00:36:59.706Z,98113.23
2018-08-13T00:39:27.904Z,98105.91
2018-08-13T00:41:56.034Z,98104.85
2018-08-13T00:44:24.191Z,98105.31
2018-08-13T00:46:59.734Z,98105.77
2018-08-13T00:49:29.646Z,98100.84
2018-08-13T00:51:57.732Z,98109.02
2018-08-13T00:54:25.839Z,98106.29
2018-08-13T00:56:54.315Z,98100.08
2018-08-13T00:59:22.424Z,98096.64
2018-08-13T01:01:53.458Z,98094.81
2018-08-13T19:05:57.024Z,98106.23
2018-08-13T19:08:25.444Z,98108.83
2018-08-13T19:10:53.564Z,98120.25
2018-08-13T19:13:21.718Z,98128.79
2018-08-13T19:15:49.846Z,98130.53
2018-08-13T19:18:18.267Z,98130.83
2018-08-13T19:20:46.485Z,98140.78
2018-08-13T19:23:14.584Z,98144.88
2018-08-13T19:25:42.766Z,98146.34
2018-08-13T19:28:10.940Z,98144.29
2018-08-13T19:30:39.335Z,98146.45
2018-08-13T19:33:07.447Z,98149.02
2018-08-13T19:35:35.592Z,98149.94
2018-08-13T19:38:03.705Z,98156.88
2018-08-13T19:40:32.257Z,98160.80
2018-08-13T19:43:00.358Z,98160.50
2018-08-13T19:45:29.085Z,98160.71
2018-08-13T19:47:57.187Z,98160.08
2018-08-13T19:50:25.303Z,98170.75
2018-08-13T19:52:54.063Z,98162.20
2018-08-13T19:55:22.823Z,98158.52
2018-08-13T19:57:51.923Z,98154.48
2018-08-13T20:00:22.899Z,98156.45
2018-08-13T20:02:51.494Z,98156.27
2018-08-13T20:05:21.092Z,98155.38
2018-08-13T20:07:49.344Z,98152.92
2018-08-13T20:10:17.754Z,98149.98
2018-08-13T20:12:46.552Z,98158.73
2018-08-13T20:15:14.858Z,98152.59
2018-08-13T20:17:43.620Z,98153.86
2018-08-13T20:20:13.937Z,98163.33
2018-08-13T20:22:42.528Z,98166.04
2018-08-13T20:25:12.139Z,98168.67
2018-08-13T20:27:40.573Z,98160.91
2018-08-13T20:30:11.037Z,98162.20
2018-08-13T20:32:39.151Z,98165.09
2018-08-13T20:35:07.383Z,98169.53
2018-08-13T20:37:35.497Z,98168.34
2018-08-13T20:40:03.744Z,98175.80
2018-08-13T20:42:32.555Z,98174.37
2018-08-13T20:45:00.918Z,98167.49
2018-08-13T20:47:29.211Z,98170.02
2018-08-13T20:49:57.468Z,98172.19
2018-08-13T20:52:26.747Z,98174.84
2018-08-13T20:54:56.075Z,98178.66
2018-08-13T20:57:24.450Z,98177.86
2018-08-13T20:59:52.664Z,98184.95
2018-08-13T21:02:20.772Z,98190.47
2018-08-13T21:04:48.899Z,98191.71
2018-08-13T21:07:17.209Z,98193.38
2018-08-13T21:09:45.540Z,98189.12
2018-08-13T21:12:13.636Z,98187.72
2018-08-13T21:14:42.631Z,98186.53
2018-08-13T21:17:10.843Z,98198.34
2018-08-13T21:19:39.007Z,98194.53
2018-08-13T21:22:07.121Z,98206.97
2018-08-13T21:24:38.363Z,98211.75
2018-08-13T22:13:10.267Z,98240.73
2018-08-13T22:15:38.419Z,98250.73
2018-08-13T22:18:07.835Z,98253.60
2018-08-13T22:20:36.825Z,98265.30
2018-08-13T22:23:07.036Z,98267.14
2018-08-13T22:25:38.919Z,98265.47
2018-08-13T22:28:08.419Z,98270.83
2018-08-13T22:30:36.891Z,98270.45
2018-08-13T22:33:05.808Z,98270.63
2018-08-13T22:35:33.911Z,98267.98
2018-08-13T22:38:02.127Z,98280.97
2018-08-13T22:40:30.381Z,98278.25
2018-08-13T22:42:59.603Z,98282.45
2018-08-13T22:45:27.763Z,98283.88
2018-08-13T22:47:56.597Z,98288.98
2018-08-13T22:50:25.724Z,98284.20
2018-08-13T22:52:54.094Z,98287.44
2018-08-13T22:55:22.480Z,98288.14
2018-08-13T22:57:50.689Z,98282.64
2018-08-13T23:00:19.972Z,98282.31
2018-08-13T23:02:49.019Z,98292.03
2018-08-13T23:05:18.819Z,98296.09
2018-08-13T23:07:47.000Z,98300.28
2018-08-13T23:10:18.193Z,98299.31
2018-08-13T23:12:48.491Z,98295.11
2018-08-13T23:15:17.159Z,98297.33
2018-08-13T23:17:45.737Z,98299.75
2018-08-13T23:23:42.019Z,98306.30
2018-08-13T23:26:10.535Z,98313.08
2018-08-13T23:28:39.055Z,98310.61
2018-08-13T23:31:07.452Z,98315.09
2018-08-13T23:33:36.251Z,98311.54
2018-08-13T23:36:04.358Z,98313.47
2018-08-13T23:38:32.628Z,98311.53
2018-08-13T23:41:01.087Z,98315.81
2018-08-13T23:43:29.552Z,98309.95
2018-08-13T23:45:57.657Z,98311.19
2018-08-13T23:48:25.773Z,98305.55
2018-08-13T23:50:53.905Z,98308.33
2018-08-13T23:53:22.031Z,98303.53
2018-08-13T23:55:50.947Z,98306.50
2018-08-13T23:58:19.727Z,98296.16
